sensor_id;sensor_type;location;lat;lon;timestamp;P1;durP1;ratioP1;P2;durP2;ratioP2
14768;SDS011;7476;49.404;11.152;2023-02-13T00:00:33;2.30;;;2.10;;
14768;SDS011;7476;49.404;11.152;2023-02-13T00:03:00;2.17;;;1.93;;
14768;SDS011;7476;49.404;11.152;2023-02-13T00:05:27;2.73;;;2.07;;
14768;SDS011;7476;49.404;11.152;2023-02-13T00:07:54;3.73;;;2.53;;
14768;SDS011;7476;49.404;11.152;2023-02-13T00:10:22;2.10;;;1.90;;
14768;SDS011;7476;49.404;11.152;2023-02-13T00:12:49;2.00;;;1.90;;
14768;SDS011;7476;49.404;11.152;2023-02-13T00:15:16;2.93;;;2.10;;
14768;SDS011;7476;49.404;11.152;2023-02-13T00:17:43;2.80;;;1.93;;
14768;SDS011;7476;49.404;11.152;2023-02-13T00:20:10;2.37;;;2.07;;
14768;SDS011;7476;49.404;11.152;2023-02-13T00:22:37;2.30;;;2.10;;
14768;SDS011;7476;49.404;11.152;2023-02-13T00:25:04;2.87;;;2.50;;
14768;SDS011;7476;49.404;11.152;2023-02-13T00:27:34;3.37;;;2.43;;
14768;SDS011;7476;49.404;11.152;2023-02-13T00:30:01;3.17;;;2.50;;
14768;SDS011;7476;49.404;11.152;2023-02-13T00:32:28;2.60;;;2.20;;
14768;SDS011;7476;49.404;11.152;2023-02-13T00:34:55;2.20;;;2.00;;
14768;SDS011;7476;49.404;11.152;2023-02-13T00:37:22;2.53;;;2.30;;
14768;SDS011;7476;49.404;11.152;2023-02-13T00:39:49;2.83;;;2.60;;
14768;SDS011;7476;49.404;11.152;2023-02-13T00:42:15;2.40;;;2.17;;
14768;SDS011;7476;49.404;11.152;2023-02-13T00:44:43;3.63;;;2.33;;
14768;SDS011;7476;49.404;11.152;2023-02-13T00:47:10;3.13;;;2.40;;
14768;SDS011;7476;49.404;11.152;2023-02-13T00:49:38;2.90;;;2.03;;
14768;SDS011;7476;49.404;11.152;2023-02-13T00:52:05;2.23;;;2.03;;
14768;SDS011;7476;49.404;11.152;2023-02-13T00:54:32;2.63;;;2.40;;
14768;SDS011;7476;49.404;11.152;2023-02-13T00:56:59;2.67;;;2.47;;
14768;SDS011;7476;49.404;11.152;2023-02-13T00:59:25;3.00;;;2.30;;
14768;SDS011;7476;49.404;11.152;2023-02-13T01:01:53;2.97;;;2.30;;
14768;SDS011;7476;49.404;11.152;2023-02-13T01:04:20;2.90;;;2.37;;
14768;SDS011;7476;49.404;11.152;2023-02-13T01:06:47;3.13;;;2.30;;
14768;SDS011;7476;49.404;11.152;2023-02-13T01:09:13;5.10;;;2.37;;
14768;SDS011;7476;49.404;11.152;2023-02-13T01:11:40;3.37;;;2.33;;
14768;SDS011;7476;49.404;11.152;2023-02-13T01:14:07;2.70;;;2.13;;
14768;SDS011;7476;49.404;11.152;2023-02-13T01:16:33;3.17;;;2.73;;
14768;SDS011;7476;49.404;11.152;2023-02-13T01:19:01;2.50;;;2.20;;
14768;SDS011;7476;49.404;11.152;2023-02-13T01:21:29;3.30;;;2.13;;
14768;SDS011;7476;49.404;11.152;2023-02-13T01:23:56;2.70;;;2.20;;
14768;SDS011;7476;49.404;11.152;2023-02-13T01:26:23;3.03;;;2.33;;
14768;SDS011;7476;49.404;11.152;2023-02-13T01:28:51;2.33;;;2.03;;
14768;SDS011;7476;49.404;11.152;2023-02-13T01:31:19;4.17;;;2.50;;
14768;SDS011;7476;49.404;11.152;2023-02-13T01:33:46;2.30;;;2.10;;
14768;SDS011;7476;49.404;11.152;2023-02-13T01:36:14;2.67;;;2.10;;
14768;SDS011;7476;49.404;11.152;2023-02-13T01:38:41;2.60;;;2.17;;
14768;SDS011;7476;49.404;11.152;2023-02-13T01:41:08;2.80;;;2.30;;
14768;SDS011;7476;49.404;11.152;2023-02-13T01:43:42;2.97;;;2.40;;
14768;SDS011;7476;49.404;11.152;2023-02-13T01:46:11;2.73;;;2.27;;
14768;SDS011;7476;49.404;11.152;2023-02-13T01:48:41;2.60;;;2.40;;
14768;SDS011;7476;49.404;11.152;2023-02-13T01:51:09;2.47;;;2.27;;
14768;SDS011;7476;49.404;11.152;2023-02-13T01:53:42;2.57;;;2.20;;
14768;SDS011;7476;49.404;11.152;2023-02-13T01:56:13;2.40;;;2.20;;
14768;SDS011;7476;49.404;11.152;2023-02-13T01:58:43;3.13;;;2.43;;
14768;SDS011;7476;49.404;11.152;2023-02-13T02:01:14;3.17;;;2.30;;
14768;SDS011;7476;49.404;11.152;2023-02-13T02:03:41;2.37;;;2.13;;
14768;SDS011;7476;49.404;11.152;2023-02-13T02:06:11;2.57;;;2.20;;
14768;SDS011;7476;49.404;11.152;2023-02-13T02:08:43;2.57;;;2.03;;
14768;SDS011;7476;49.404;11.152;2023-02-13T02:11:14;3.07;;;2.30;;
14768;SDS011;7476;49.404;11.152;2023-02-13T02:13:47;2.97;;;2.40;;
14768;SDS011;7476;49.404;11.152;2023-02-13T02:16:14;2.40;;;2.20;;
14768;SDS011;7476;49.404;11.152;2023-02-13T02:18:41;2.20;;;2.00;;
14768;SDS011;7476;49.404;11.152;2023-02-13T02:21:20;2.90;;;2.20;;
14768;SDS011;7476;49.404;11.152;2023-02-13T02:24:09;2.47;;;2.00;;
14768;SDS011;7476;49.404;11.152;2023-02-13T02:27:00;3.33;;;2.40;;
14768;SDS011;7476;49.404;11.152;2023-02-13T02:29:44;3.20;;;2.20;;
14768;SDS011;7476;49.404;11.152;2023-02-13T02:32:55;2.97;;;2.00;;
14768;SDS011;7476;49.404;11.152;2023-02-13T02:35:29;2.50;;;2.03;;
14768;SDS011;7476;49.404;11.152;2023-02-13T02:38:07;2.50;;;2.03;;
14768;SDS011;7476;49.404;11.152;2023-02-13T02:40:45;3.07;;;2.40;;
14768;SDS011;7476;49.404;11.152;2023-02-13T02:43:24;2.30;;;2.07;;
14768;SDS011;7476;49.404;11.152;2023-02-13T02:46:00;2.50;;;2.30;;
14768;SDS011;7476;49.404;11.152;2023-02-13T02:48:37;3.17;;;2.43;;
14768;SDS011;7476;49.404;11.152;2023-02-13T02:51:32;3.93;;;2.60;;
14768;SDS011;7476;49.404;11.152;2023-02-13T02:54:06;3.63;;;2.60;;
14768;SDS011;7476;49.404;11.152;2023-02-13T02:56:53;3.20;;;2.40;;
14768;SDS011;7476;49.404;11.152;2023-02-13T02:59:25;3.73;;;2.70;;
14768;SDS011;7476;49.404;11.152;2023-02-13T03:02:11;2.90;;;2.23;;
14768;SDS011;7476;49.404;11.152;2023-02-13T03:04:57;3.30;;;2.40;;
14768;SDS011;7476;49.404;11.152;2023-02-13T03:07:43;2.90;;;2.40;;
14768;SDS011;7476;49.404;11.152;2023-02-13T03:10:11;3.07;;;2.30;;
14768;SDS011;7476;49.404;11.152;2023-02-13T03:13:00;3.43;;;2.53;;
14768;SDS011;7476;49.404;11.152;2023-02-13T03:15:46;3.93;;;2.40;;
14768;SDS011;7476;49.404;11.152;2023-02-13T03:18:34;3.37;;;2.40;;
14768;SDS011;7476;49.404;11.152;2023-02-13T03:21:24;3.33;;;3.03;;
14768;SDS011;7476;49.404;11.152;2023-02-13T03:24:22;3.77;;;2.80;;
14768;SDS011;7476;49.404;11.152;2023-02-13T03:26:54;3.80;;;2.80;;
14768;SDS011;7476;49.404;11.152;2023-02-13T03:29:32;2.70;;;2.23;;
14768;SDS011;7476;49.404;11.152;2023-02-13T03:32:27;3.00;;;2.70;;
14768;SDS011;7476;49.404;11.152;2023-02-13T03:35:03;4.17;;;3.10;;
14768;SDS011;7476;49.404;11.152;2023-02-13T03:38:01;2.90;;;2.60;;
14768;SDS011;7476;49.404;11.152;2023-02-13T03:40:34;4.43;;;2.93;;
14768;SDS011;7476;49.404;11.152;2023-02-13T03:43:25;2.77;;;2.47;;
14768;SDS011;7476;49.404;11.152;2023-02-13T03:45:57;4.10;;;3.10;;
14768;SDS011;7476;49.404;11.152;2023-02-13T03:48:27;6.43;;;4.37;;
14768;SDS011;7476;49.404;11.152;2023-02-13T03:51:16;4.30;;;3.60;;
14768;SDS011;7476;49.404;11.152;2023-02-13T03:53:48;4.47;;;3.80;;
14768;SDS011;7476;49.404;11.152;2023-02-13T03:56:20;4.97;;;3.43;;
14768;SDS011;7476;49.404;11.152;2023-02-13T03:59:05;4.27;;;3.13;;
14768;SDS011;7476;49.404;11.152;2023-02-13T04:01:42;6.47;;;3.00;;
14768;SDS011;7476;49.404;11.152;2023-02-13T04:04:16;4.77;;;3.30;;
14768;SDS011;7476;49.404;11.152;2023-02-13T04:06:51;6.27;;;3.77;;
14768;SDS011;7476;49.404;11.152;2023-02-13T04:09:22;4.47;;;3.40;;
14768;SDS011;7476;49.404;11.152;2023-02-13T04:11:53;4.67;;;2.97;;
14768;SDS011;7476;49.404;11.152;2023-02-13T04:14:27;3.87;;;2.90;;
14768;SDS011;7476;49.404;11.152;2023-02-13T04:17:01;4.87;;;3.30;;
14768;SDS011;7476;49.404;11.152;2023-02-13T04:19:30;4.97;;;3.53;;
14768;SDS011;7476;49.404;11.152;2023-02-13T04:21:58;5.53;;;4.10;;
14768;SDS011;7476;49.404;11.152;2023-02-13T04:24:28;5.10;;;3.80;;
14768;SDS011;7476;49.404;11.152;2023-02-13T04:26:55;4.80;;;3.73;;
14768;SDS011;7476;49.404;11.152;2023-02-13T04:29:23;4.70;;;3.70;;
14768;SDS011;7476;49.404;11.152;2023-02-13T04:31:51;5.17;;;3.97;;
14768;SDS011;7476;49.404;11.152;2023-02-13T04:34:17;5.73;;;4.13;;
14768;SDS011;7476;49.404;11.152;2023-02-13T04:36:44;5.40;;;3.73;;
14768;SDS011;7476;49.404;11.152;2023-02-13T04:39:11;4.93;;;3.93;;
14768;SDS011;7476;49.404;11.152;2023-02-13T04:41:39;5.63;;;3.83;;
14768;SDS011;7476;49.404;11.152;2023-02-13T04:44:06;5.10;;;3.83;;
14768;SDS011;7476;49.404;11.152;2023-02-13T04:46:33;6.87;;;3.93;;
14768;SDS011;7476;49.404;11.152;2023-02-13T04:48:59;4.67;;;3.73;;
14768;SDS011;7476;49.404;11.152;2023-02-13T04:51:26;4.60;;;3.93;;
14768;SDS011;7476;49.404;11.152;2023-02-13T04:53:53;6.17;;;4.10;;
14768;SDS011;7476;49.404;11.152;2023-02-13T04:56:19;4.70;;;3.97;;
14768;SDS011;7476;49.404;11.152;2023-02-13T04:58:47;5.33;;;4.30;;
14768;SDS011;7476;49.404;11.152;2023-02-13T05:01:14;5.80;;;4.53;;
14768;SDS011;7476;49.404;11.152;2023-02-13T05:03:42;6.97;;;4.60;;
14768;SDS011;7476;49.404;11.152;2023-02-13T05:06:08;6.37;;;4.43;;
14768;SDS011;7476;49.404;11.152;2023-02-13T05:08:35;5.30;;;4.20;;
14768;SDS011;7476;49.404;11.152;2023-02-13T05:11:02;5.53;;;4.40;;
14768;SDS011;7476;49.404;11.152;2023-02-13T05:13:29;6.03;;;4.50;;
14768;SDS011;7476;49.404;11.152;2023-02-13T05:15:57;5.90;;;3.93;;
14768;SDS011;7476;49.404;11.152;2023-02-13T05:18:24;7.23;;;3.93;;
14768;SDS011;7476;49.404;11.152;2023-02-13T05:20:51;6.93;;;4.53;;
14768;SDS011;7476;49.404;11.152;2023-02-13T05:23:31;5.93;;;4.47;;
14768;SDS011;7476;49.404;11.152;2023-02-13T05:25:58;6.83;;;4.87;;
14768;SDS011;7476;49.404;11.152;2023-02-13T05:28:25;6.83;;;4.50;;
14768;SDS011;7476;49.404;11.152;2023-02-13T05:31:10;6.17;;;4.57;;
14768;SDS011;7476;49.404;11.152;2023-02-13T05:33:37;7.33;;;4.97;;
14768;SDS011;7476;49.404;11.152;2023-02-13T05:36:04;5.90;;;4.43;;
14768;SDS011;7476;49.404;11.152;2023-02-13T05:38:31;6.50;;;4.67;;
14768;SDS011;7476;49.404;11.152;2023-02-13T05:40:58;7.53;;;4.50;;
14768;SDS011;7476;49.404;11.152;2023-02-13T05:43:25;5.03;;;4.37;;
14768;SDS011;7476;49.404;11.152;2023-02-13T05:45:59;6.47;;;4.43;;
14768;SDS011;7476;49.404;11.152;2023-02-13T05:48:28;6.90;;;4.63;;
14768;SDS011;7476;49.404;11.152;2023-02-13T05:50:55;6.47;;;4.67;;
14768;SDS011;7476;49.404;11.152;2023-02-13T05:53:21;7.07;;;5.17;;
14768;SDS011;7476;49.404;11.152;2023-02-13T05:55:48;7.23;;;4.53;;
14768;SDS011;7476;49.404;11.152;2023-02-13T05:58:16;7.23;;;4.37;;
14768;SDS011;7476;49.404;11.152;2023-02-13T06:00:42;8.17;;;5.10;;
14768;SDS011;7476;49.404;11.152;2023-02-13T06:03:10;6.87;;;4.97;;
14768;SDS011;7476;49.404;11.152;2023-02-13T06:05:38;6.97;;;4.80;;
14768;SDS011;7476;49.404;11.152;2023-02-13T06:08:04;8.90;;;5.63;;
14768;SDS011;7476;49.404;11.152;2023-02-13T06:10:31;10.70;;;5.80;;
14768;SDS011;7476;49.404;11.152;2023-02-13T06:12:58;8.87;;;5.37;;
14768;SDS011;7476;49.404;11.152;2023-02-13T06:15:25;8.20;;;5.50;;
14768;SDS011;7476;49.404;11.152;2023-02-13T06:17:52;14.00;;;5.93;;
14768;SDS011;7476;49.404;11.152;2023-02-13T06:20:18;10.23;;;5.40;;
14768;SDS011;7476;49.404;11.152;2023-02-13T06:22:48;8.13;;;5.17;;
14768;SDS011;7476;49.404;11.152;2023-02-13T06:25:15;9.10;;;5.87;;
14768;SDS011;7476;49.404;11.152;2023-02-13T06:27:41;9.77;;;5.40;;
14768;SDS011;7476;49.404;11.152;2023-02-13T06:30:08;11.00;;;5.80;;
14768;SDS011;7476;49.404;11.152;2023-02-13T06:32:36;9.23;;;5.60;;
14768;SDS011;7476;49.404;11.152;2023-02-13T06:35:03;9.60;;;6.20;;
14768;SDS011;7476;49.404;11.152;2023-02-13T06:37:30;12.97;;;6.60;;
14768;SDS011;7476;49.404;11.152;2023-02-13T06:39:58;10.73;;;6.63;;
14768;SDS011;7476;49.404;11.152;2023-02-13T06:42:25;10.50;;;6.37;;
14768;SDS011;7476;49.404;11.152;2023-02-13T06:44:52;12.07;;;6.37;;
14768;SDS011;7476;49.404;11.152;2023-02-13T06:47:18;11.73;;;6.67;;
14768;SDS011;7476;49.404;11.152;2023-02-13T06:49:45;12.97;;;7.00;;
14768;SDS011;7476;49.404;11.152;2023-02-13T06:52:12;14.17;;;8.07;;
14768;SDS011;7476;49.404;11.152;2023-02-13T06:54:39;15.53;;;8.00;;
14768;SDS011;7476;49.404;11.152;2023-02-13T06:57:07;17.40;;;8.20;;
14768;SDS011;7476;49.404;11.152;2023-02-13T06:59:33;15.30;;;7.73;;
14768;SDS011;7476;49.404;11.152;2023-02-13T07:02:00;15.97;;;7.93;;
14768;SDS011;7476;49.404;11.152;2023-02-13T07:04:27;13.63;;;7.77;;
14768;SDS011;7476;49.404;11.152;2023-02-13T07:06:54;11.70;;;7.30;;
14768;SDS011;7476;49.404;11.152;2023-02-13T07:09:21;15.47;;;8.37;;
14768;SDS011;7476;49.404;11.152;2023-02-13T07:11:47;12.97;;;7.67;;
14768;SDS011;7476;49.404;11.152;2023-02-13T07:14:15;12.07;;;8.30;;
14768;SDS011;7476;49.404;11.152;2023-02-13T07:16:42;12.17;;;8.10;;
14768;SDS011;7476;49.404;11.152;2023-02-13T07:19:09;14.83;;;8.97;;
14768;SDS011;7476;49.404;11.152;2023-02-13T07:21:35;11.13;;;8.03;;
14768;SDS011;7476;49.404;11.152;2023-02-13T07:24:02;14.50;;;8.07;;
14768;SDS011;7476;49.404;11.152;2023-02-13T07:26:29;14.50;;;8.87;;
14768;SDS011;7476;49.404;11.152;2023-02-13T07:28:56;12.33;;;8.37;;
14768;SDS011;7476;49.404;11.152;2023-02-13T07:31:24;17.03;;;8.87;;
14768;SDS011;7476;49.404;11.152;2023-02-13T07:33:51;14.73;;;8.60;;
14768;SDS011;7476;49.404;11.152;2023-02-13T07:36:17;13.47;;;8.77;;
14768;SDS011;7476;49.404;11.152;2023-02-13T07:38:44;14.60;;;8.70;;
14768;SDS011;7476;49.404;11.152;2023-02-13T07:41:11;14.87;;;8.27;;
14768;SDS011;7476;49.404;11.152;2023-02-13T07:43:38;14.67;;;8.97;;
14768;SDS011;7476;49.404;11.152;2023-02-13T07:46:04;12.17;;;8.53;;
14768;SDS011;7476;49.404;11.152;2023-02-13T07:48:32;13.07;;;9.20;;
14768;SDS011;7476;49.404;11.152;2023-02-13T07:50:59;11.33;;;8.27;;
14768;SDS011;7476;49.404;11.152;2023-02-13T07:53:28;13.40;;;9.20;;
14768;SDS011;7476;49.404;11.152;2023-02-13T07:55:55;14.83;;;8.83;;
14768;SDS011;7476;49.404;11.152;2023-02-13T07:58:22;12.87;;;9.00;;
14768;SDS011;7476;49.404;11.152;2023-02-13T08:00:48;13.93;;;8.97;;
14768;SDS011;7476;49.404;11.152;2023-02-13T08:03:15;13.27;;;9.30;;
14768;SDS011;7476;49.404;11.152;2023-02-13T08:05:43;18.53;;;10.67;;
14768;SDS011;7476;49.404;11.152;2023-02-13T08:08:13;14.37;;;9.80;;
14768;SDS011;7476;49.404;11.152;2023-02-13T08:10:40;13.43;;;9.33;;
14768;SDS011;7476;49.404;11.152;2023-02-13T08:13:24;18.30;;;10.40;;
14768;SDS011;7476;49.404;11.152;2023-02-13T08:15:52;13.77;;;9.37;;
14768;SDS011;7476;49.404;11.152;2023-02-13T08:18:18;13.43;;;10.17;;
14768;SDS011;7476;49.404;11.152;2023-02-13T08:20:46;16.30;;;10.27;;
14768;SDS011;7476;49.404;11.152;2023-02-13T08:23:13;29.80;;;11.87;;
14768;SDS011;7476;49.404;11.152;2023-02-13T08:25:40;46.87;;;11.53;;
14768;SDS011;7476;49.404;11.152;2023-02-13T08:28:07;22.03;;;10.30;;
14768;SDS011;7476;49.404;11.152;2023-02-13T08:30:34;24.60;;;9.10;;
14768;SDS011;7476;49.404;11.152;2023-02-13T08:33:00;11.77;;;8.40;;
14768;SDS011;7476;49.404;11.152;2023-02-13T08:35:27;21.57;;;9.90;;
14768;SDS011;7476;49.404;11.152;2023-02-13T08:37:56;36.70;;;9.77;;
14768;SDS011;7476;49.404;11.152;2023-02-13T08:40:26;27.00;;;11.20;;
14768;SDS011;7476;49.404;11.152;2023-02-13T08:42:57;12.30;;;8.80;;
14768;SDS011;7476;49.404;11.152;2023-02-13T08:45:26;13.57;;;10.23;;
14768;SDS011;7476;49.404;11.152;2023-02-13T08:47:54;17.17;;;10.30;;
14768;SDS011;7476;49.404;11.152;2023-02-13T08:50:21;33.90;;;10.13;;
14768;SDS011;7476;49.404;11.152;2023-02-13T08:52:48;19.43;;;10.03;;
14768;SDS011;7476;49.404;11.152;2023-02-13T08:55:16;17.87;;;9.33;;
14768;SDS011;7476;49.404;11.152;2023-02-13T08:57:43;16.03;;;10.80;;
14768;SDS011;7476;49.404;11.152;2023-02-13T09:00:10;14.03;;;9.67;;
14768;SDS011;7476;49.404;11.152;2023-02-13T09:02:37;15.67;;;9.70;;
14768;SDS011;7476;49.404;11.152;2023-02-13T09:05:04;14.77;;;9.53;;
14768;SDS011;7476;49.404;11.152;2023-02-13T09:07:31;13.60;;;9.50;;
14768;SDS011;7476;49.404;11.152;2023-02-13T09:09:57;13.50;;;9.10;;
14768;SDS011;7476;49.404;11.152;2023-02-13T09:12:25;14.93;;;9.50;;
14768;SDS011;7476;49.404;11.152;2023-02-13T09:14:52;15.27;;;9.63;;
14768;SDS011;7476;49.404;11.152;2023-02-13T09:17:19;16.83;;;10.53;;
14768;SDS011;7476;49.404;11.152;2023-02-13T09:19:45;14.13;;;10.43;;
14768;SDS011;7476;49.404;11.152;2023-02-13T09:22:12;16.40;;;11.53;;
14768;SDS011;7476;49.404;11.152;2023-02-13T09:24:41;16.83;;;11.17;;
14768;SDS011;7476;49.404;11.152;2023-02-13T09:27:07;25.10;;;16.47;;
14768;SDS011;7476;49.404;11.152;2023-02-13T09:29:35;18.07;;;12.57;;
14768;SDS011;7476;49.404;11.152;2023-02-13T09:32:03;15.17;;;10.67;;
14768;SDS011;7476;49.404;11.152;2023-02-13T09:34:30;14.87;;;9.90;;
14768;SDS011;7476;49.404;11.152;2023-02-13T09:36:56;13.40;;;9.50;;
14768;SDS011;7476;49.404;11.152;2023-02-13T09:39:23;12.20;;;9.47;;
14768;SDS011;7476;49.404;11.152;2023-02-13T09:41:50;12.43;;;9.63;;
14768;SDS011;7476;49.404;11.152;2023-02-13T09:44:21;12.17;;;9.43;;
14768;SDS011;7476;49.404;11.152;2023-02-13T09:47:03;12.27;;;10.23;;
14768;SDS011;7476;49.404;11.152;2023-02-13T09:49:37;12.93;;;9.77;;
14768;SDS011;7476;49.404;11.152;2023-02-13T09:52:06;14.30;;;10.40;;
14768;SDS011;7476;49.404;11.152;2023-02-13T09:54:35;11.03;;;9.23;;
14768;SDS011;7476;49.404;11.152;2023-02-13T09:57:02;11.53;;;9.00;;
14768;SDS011;7476;49.404;11.152;2023-02-13T09:59:41;10.87;;;9.10;;
14768;SDS011;7476;49.404;11.152;2023-02-13T10:02:34;11.70;;;8.70;;
14768;SDS011;7476;49.404;11.152;2023-02-13T10:05:11;10.73;;;8.83;;
14768;SDS011;7476;49.404;11.152;2023-02-13T10:07:47;10.67;;;8.47;;
14768;SDS011;7476;49.404;11.152;2023-02-13T10:10:22;10.77;;;9.00;;
14768;SDS011;7476;49.404;11.152;2023-02-13T10:12:55;11.50;;;9.27;;
14768;SDS011;7476;49.404;11.152;2023-02-13T10:15:34;10.43;;;8.80;;
14768;SDS011;7476;49.404;11.152;2023-02-13T10:18:08;12.77;;;9.60;;
14768;SDS011;7476;49.404;11.152;2023-02-13T10:20:38;10.70;;;9.03;;
14768;SDS011;7476;49.404;11.152;2023-02-13T10:23:14;10.77;;;9.10;;
14768;SDS011;7476;49.404;11.152;2023-02-13T10:25:47;13.17;;;9.70;;
14768;SDS011;7476;49.404;11.152;2023-02-13T10:28:21;12.63;;;9.57;;
14768;SDS011;7476;49.404;11.152;2023-02-13T10:31:02;11.87;;;9.87;;
14768;SDS011;7476;49.404;11.152;2023-02-13T10:33:33;12.03;;;9.00;;
14768;SDS011;7476;49.404;11.152;2023-02-13T10:36:04;11.93;;;8.60;;
14768;SDS011;7476;49.404;11.152;2023-02-13T10:38:42;11.60;;;9.17;;
14768;SDS011;7476;49.404;11.152;2023-02-13T10:41:16;14.33;;;9.80;;
14768;SDS011;7476;49.404;11.152;2023-02-13T10:43:52;11.67;;;9.03;;
14768;SDS011;7476;49.404;11.152;2023-02-13T10:46:28;11.30;;;8.80;;
14768;SDS011;7476;49.404;11.152;2023-02-13T10:49:06;13.53;;;10.13;;
14768;SDS011;7476;49.404;11.152;2023-02-13T10:51:51;25.17;;;12.43;;
14768;SDS011;7476;49.404;11.152;2023-02-13T10:54:23;13.43;;;9.43;;
14768;SDS011;7476;49.404;11.152;2023-02-13T10:57:09;12.17;;;9.47;;
14768;SDS011;7476;49.404;11.152;2023-02-13T10:59:49;12.67;;;8.70;;
14768;SDS011;7476;49.404;11.152;2023-02-13T11:02:28;11.90;;;9.23;;
14768;SDS011;7476;49.404;11.152;2023-02-13T11:04:58;12.03;;;9.20;;
14768;SDS011;7476;49.404;11.152;2023-02-13T11:07:27;11.53;;;9.13;;
14768;SDS011;7476;49.404;11.152;2023-02-13T11:09:57;12.30;;;8.63;;
14768;SDS011;7476;49.404;11.152;2023-02-13T11:12:31;10.13;;;8.10;;
14768;SDS011;7476;49.404;11.152;2023-02-13T11:15:00;11.60;;;9.00;;
14768;SDS011;7476;49.404;11.152;2023-02-13T11:17:29;15.03;;;9.60;;
14768;SDS011;7476;49.404;11.152;2023-02-13T11:19:59;13.87;;;8.70;;
14768;SDS011;7476;49.404;11.152;2023-02-13T11:22:31;12.03;;;8.90;;
14768;SDS011;7476;49.404;11.152;2023-02-13T11:25:01;12.57;;;8.47;;
14768;SDS011;7476;49.404;11.152;2023-02-13T11:27:32;16.67;;;9.47;;
14768;SDS011;7476;49.404;11.152;2023-02-13T11:30:01;13.60;;;9.33;;
14768;SDS011;7476;49.404;11.152;2023-02-13T11:32:31;12.83;;;8.50;;
14768;SDS011;7476;49.404;11.152;2023-02-13T11:35:15;13.10;;;8.63;;
14768;SDS011;7476;49.404;11.152;2023-02-13T11:38:05;9.33;;;7.67;;
14768;SDS011;7476;49.404;11.152;2023-02-13T11:40:38;13.17;;;8.83;;
14768;SDS011;7476;49.404;11.152;2023-02-13T11:43:13;10.17;;;7.77;;
14768;SDS011;7476;49.404;11.152;2023-02-13T11:45:44;10.37;;;7.93;;
14768;SDS011;7476;49.404;11.152;2023-02-13T11:48:18;10.03;;;7.97;;
14768;SDS011;7476;49.404;11.152;2023-02-13T11:50:51;9.63;;;7.50;;
14768;SDS011;7476;49.404;11.152;2023-02-13T11:53:20;9.40;;;7.53;;
14768;SDS011;7476;49.404;11.152;2023-02-13T11:55:59;8.93;;;7.20;;
14768;SDS011;7476;49.404;11.152;2023-02-13T11:58:29;10.10;;;6.47;;
14768;SDS011;7476;49.404;11.152;2023-02-13T12:01:09;7.97;;;6.00;;
14768;SDS011;7476;49.404;11.152;2023-02-13T12:04:03;6.90;;;5.80;;
14768;SDS011;7476;49.404;11.152;2023-02-13T12:06:33;8.27;;;6.60;;
14768;SDS011;7476;49.404;11.152;2023-02-13T12:09:04;6.50;;;5.43;;
14768;SDS011;7476;49.404;11.152;2023-02-13T12:11:38;7.13;;;5.40;;
14768;SDS011;7476;49.404;11.152;2023-02-13T12:14:09;8.23;;;5.37;;
14768;SDS011;7476;49.404;11.152;2023-02-13T12:16:39;6.03;;;4.97;;
14768;SDS011;7476;49.404;11.152;2023-02-13T12:19:12;7.00;;;5.33;;
14768;SDS011;7476;49.404;11.152;2023-02-13T12:21:47;6.83;;;5.43;;
14768;SDS011;7476;49.404;11.152;2023-02-13T12:24:31;7.13;;;5.77;;
14768;SDS011;7476;49.404;11.152;2023-02-13T12:27:15;6.73;;;4.70;;
14768;SDS011;7476;49.404;11.152;2023-02-13T12:29:53;6.80;;;5.33;;
14768;SDS011;7476;49.404;11.152;2023-02-13T12:32:36;6.33;;;4.90;;
14768;SDS011;7476;49.404;11.152;2023-02-13T12:38:03;5.17;;;4.67;;
14768;SDS011;7476;49.404;11.152;2023-02-13T12:46:31;6.07;;;4.73;;
14768;SDS011;7476;49.404;11.152;2023-02-13T12:49:07;5.03;;;4.10;;
14768;SDS011;7476;49.404;11.152;2023-02-13T12:51:50;5.20;;;4.40;;
14768;SDS011;7476;49.404;11.152;2023-02-13T12:54:33;5.03;;;4.30;;
14768;SDS011;7476;49.404;11.152;2023-02-13T12:57:13;4.60;;;4.20;;
14768;SDS011;7476;49.404;11.152;2023-02-13T12:59:51;4.40;;;4.00;;
14768;SDS011;7476;49.404;11.152;2023-02-13T13:02:46;4.43;;;4.00;;
14768;SDS011;7476;49.404;11.152;2023-02-13T13:05:24;5.40;;;4.00;;
14768;SDS011;7476;49.404;11.152;2023-02-13T13:08:00;4.80;;;4.10;;
14768;SDS011;7476;49.404;11.152;2023-02-13T13:10:48;5.27;;;4.37;;
14768;SDS011;7476;49.404;11.152;2023-02-13T13:13:27;4.60;;;4.03;;
14768;SDS011;7476;49.404;11.152;2023-02-13T13:16:04;5.17;;;4.47;;
14768;SDS011;7476;49.404;11.152;2023-02-13T13:18:40;4.77;;;4.30;;
14768;SDS011;7476;49.404;11.152;2023-02-13T13:21:16;6.60;;;4.57;;
14768;SDS011;7476;49.404;11.152;2023-02-13T13:23:52;7.93;;;4.27;;
14768;SDS011;7476;49.404;11.152;2023-02-13T13:26:26;4.80;;;4.30;;
14768;SDS011;7476;49.404;11.152;2023-02-13T13:29:01;4.53;;;4.07;;
14768;SDS011;7476;49.404;11.152;2023-02-13T13:31:31;4.80;;;4.30;;
14768;SDS011;7476;49.404;11.152;2023-02-13T13:34:03;4.67;;;4.23;;
14768;SDS011;7476;49.404;11.152;2023-02-13T13:36:33;4.67;;;4.00;;
14768;SDS011;7476;49.404;11.152;2023-02-13T13:39:08;4.07;;;3.67;;
14768;SDS011;7476;49.404;11.152;2023-02-13T13:41:46;5.30;;;4.50;;
14768;SDS011;7476;49.404;11.152;2023-02-13T13:47:15;5.40;;;4.70;;
14768;SDS011;7476;49.404;11.152;2023-02-13T13:49:50;5.63;;;5.00;;
14768;SDS011;7476;49.404;11.152;2023-02-13T13:52:20;4.60;;;4.20;;
14768;SDS011;7476;49.404;11.152;2023-02-13T13:54:48;7.87;;;4.80;;
14768;SDS011;7476;49.404;11.152;2023-02-13T13:57:18;8.57;;;4.50;;
14768;SDS011;7476;49.404;11.152;2023-02-13T14:05:55;5.70;;;4.70;;
14768;SDS011;7476;49.404;11.152;2023-02-13T14:11:32;5.70;;;5.20;;
14768;SDS011;7476;49.404;11.152;2023-02-13T14:14:04;5.30;;;4.80;;
14768;SDS011;7476;49.404;11.152;2023-02-13T14:20:21;5.43;;;4.93;;
14768;SDS011;7476;49.404;11.152;2023-02-13T14:23:05;5.40;;;4.90;;
14768;SDS011;7476;49.404;11.152;2023-02-13T14:25:33;5.97;;;4.80;;
14768;SDS011;7476;49.404;11.152;2023-02-13T14:28:01;5.27;;;4.73;;
14768;SDS011;7476;49.404;11.152;2023-02-13T14:30:31;5.17;;;4.50;;
14768;SDS011;7476;49.404;11.152;2023-02-13T14:33:01;6.10;;;5.13;;
14768;SDS011;7476;49.404;11.152;2023-02-13T14:35:31;5.20;;;4.70;;
14768;SDS011;7476;49.404;11.152;2023-02-13T14:38:01;5.83;;;4.93;;
14768;SDS011;7476;49.404;11.152;2023-02-13T14:46:16;5.70;;;4.73;;
14768;SDS011;7476;49.404;11.152;2023-02-13T14:48:51;7.53;;;4.80;;
14768;SDS011;7476;49.404;11.152;2023-02-13T14:51:23;5.77;;;5.00;;
14768;SDS011;7476;49.404;11.152;2023-02-13T14:53:58;6.17;;;4.60;;
14768;SDS011;7476;49.404;11.152;2023-02-13T14:56:30;6.00;;;4.93;;
14768;SDS011;7476;49.404;11.152;2023-02-13T14:58:59;5.70;;;4.90;;
14768;SDS011;7476;49.404;11.152;2023-02-13T15:01:38;5.93;;;5.20;;
14768;SDS011;7476;49.404;11.152;2023-02-13T15:04:11;7.53;;;5.10;;
14768;SDS011;7476;49.404;11.152;2023-02-13T15:06:42;6.13;;;4.60;;
14768;SDS011;7476;49.404;11.152;2023-02-13T15:09:16;6.23;;;5.17;;
14768;SDS011;7476;49.404;11.152;2023-02-13T15:11:49;6.63;;;5.50;;
14768;SDS011;7476;49.404;11.152;2023-02-13T15:14:17;5.57;;;4.70;;
14768;SDS011;7476;49.404;11.152;2023-02-13T15:16:47;6.40;;;5.00;;
14768;SDS011;7476;49.404;11.152;2023-02-13T15:19:17;5.67;;;5.07;;
14768;SDS011;7476;49.404;11.152;2023-02-13T15:21:46;5.73;;;5.13;;
14768;SDS011;7476;49.404;11.152;2023-02-13T15:24:16;6.53;;;5.40;;
14768;SDS011;7476;49.404;11.152;2023-02-13T15:26:42;7.63;;;5.37;;
14768;SDS011;7476;49.404;11.152;2023-02-13T15:29:17;6.07;;;5.07;;
14768;SDS011;7476;49.404;11.152;2023-02-13T15:31:44;6.33;;;5.10;;
14768;SDS011;7476;49.404;11.152;2023-02-13T15:34:18;5.83;;;4.97;;
14768;SDS011;7476;49.404;11.152;2023-02-13T15:36:47;6.60;;;4.80;;
14768;SDS011;7476;49.404;11.152;2023-02-13T15:39:15;7.50;;;5.00;;